createdAt,value
2018-10-02T00:01:51.471Z,53.53
2018-10-02T00:04:17.488Z,53.61
2018-10-02T00:06:43.447Z,54.22
2018-10-02T00:09:09.401Z,54.09
2018-10-02T00:11:35.355Z,54.10
2018-10-02T00:14:01.315Z,53.36
2018-10-02T00:16:27.299Z,53.59
2018-10-02T00:18:53.251Z,53.55
2018-10-02T00:21:19.199Z,53.99
2018-10-02T00:23:45.160Z,54.30
2018-10-02T00:26:11.114Z,53.54
2018-10-02T00:28:37.075Z,53.66
2018-10-02T00:31:03.062Z,54.14
2018-10-02T00:33:29.007Z,53.59
2018-10-02T00:35:54.995Z,54.06
2018-10-02T00:38:20.991Z,53.51
2018-10-02T00:40:46.903Z,53.30
2018-10-02T00:43:12.852Z,53.46
2018-10-02T00:45:38.808Z,53.98
2018-10-02T00:48:04.775Z,54.34
2018-10-02T00:50:30.736Z,53.44
2018-10-02T00:52:56.696Z,53.74
2018-10-02T00:55:22.699Z,53.54
2018-10-02T00:57:48.740Z,53.43
2018-10-02T01:00:14.699Z,53.88
2018-10-02T01:02:40.641Z,54.01
2018-10-02T01:05:06.603Z,53.53
2018-10-02T01:07:32.567Z,53.99
2018-10-02T01:09:58.540Z,54.37
2018-10-02T01:12:24.516Z,54.31
2018-10-02T01:14:50.475Z,54.17
2018-10-02T01:17:16.445Z,53.85
2018-10-02T01:19:42.416Z,53.98
2018-10-02T01:22:08.371Z,53.57
2018-10-02T01:24:34.328Z,53.98
2018-10-02T01:27:00.279Z,53.62
2018-10-02T01:29:26.265Z,53.59
2018-10-02T01:31:52.215Z,53.43
2018-10-02T01:34:18.211Z,53.96
2018-10-02T01:36:44.162Z,54.65
2018-10-02T01:39:10.148Z,53.91
2018-10-02T01:41:36.103Z,54.58
2018-10-02T01:44:02.081Z,54.25
2018-10-02T01:46:28.031Z,54.53
2018-10-02T01:48:54.015Z,54.36
2018-10-02T01:51:20.048Z,54.11
2018-10-02T01:53:46.020Z,53.78
2018-10-02T01:56:11.967Z,54.64
2018-10-02T01:58:37.916Z,54.75
2018-10-02T02:01:03.869Z,54.21
2018-10-02T02:03:29.843Z,53.53
2018-10-02T02:05:55.808Z,54.15
2018-10-02T02:08:21.759Z,54.05
2018-10-02T02:10:47.712Z,54.45
2018-10-02T02:13:13.662Z,53.99
2018-10-02T02:15:39.636Z,53.66
2018-10-02T02:18:05.604Z,53.60
2018-10-02T02:20:31.611Z,53.92
2018-10-02T02:22:57.574Z,54.20
2018-10-02T02:25:23.527Z,54.08
2018-10-02T02:27:49.484Z,54.06
2018-10-02T02:30:15.446Z,54.06
2018-10-02T02:32:41.451Z,54.02
2018-10-02T02:35:07.392Z,53.50
2018-10-02T02:37:33.360Z,53.97
2018-10-02T02:39:59.408Z,54.17
2018-10-02T02:42:25.388Z,54.33
2018-10-02T02:44:51.344Z,54.50
2018-10-02T02:47:17.312Z,53.59
2018-10-02T02:49:43.440Z,54.46
2018-10-02T02:52:09.423Z,53.81
2018-10-02T02:54:35.363Z,53.85
2018-10-02T02:57:01.378Z,53.54
2018-10-02T02:59:27.332Z,54.22
2018-10-02T03:01:53.300Z,54.60
2018-10-02T03:04:19.257Z,53.80
2018-10-02T03:06:45.249Z,54.31
2018-10-02T03:09:11.246Z,54.40
2018-10-02T03:11:37.199Z,54.07
2018-10-02T03:14:03.856Z,54.19
2018-10-02T03:16:29.807Z,53.62
2018-10-02T03:18:55.759Z,54.72
2018-10-02T03:21:21.711Z,54.18
2018-10-02T03:23:47.657Z,53.93
2018-10-02T03:26:13.616Z,54.04
2018-10-02T03:28:39.572Z,53.62
2018-10-02T03:31:05.603Z,54.02
2018-10-02T03:33:31.565Z,54.54
2018-10-02T03:35:57.519Z,53.40
2018-10-02T03:38:23.497Z,53.72
2018-10-02T03:40:49.459Z,53.31
2018-10-02T03:43:15.427Z,53.50
2018-10-02T03:45:41.396Z,53.56
2018-10-02T03:48:07.394Z,53.26
2018-10-02T03:50:33.362Z,54.15
2018-10-02T03:52:59.339Z,53.82
2018-10-02T03:55:25.290Z,53.99
2018-10-02T03:57:51.243Z,53.88
2018-10-02T04:00:17.274Z,53.84
2018-10-02T04:02:43.235Z,53.65
2018-10-02T04:05:09.213Z,53.84
2018-10-02T04:07:35.171Z,53.98
2018-10-02T04:10:01.144Z,53.45
2018-10-02T04:12:27.097Z,53.67
2018-10-02T04:14:53.082Z,54.10
2018-10-02T04:17:19.151Z,53.89
2018-10-02T04:19:45.128Z,54.01
2018-10-02T04:22:11.092Z,54.04
2018-10-02T04:24:37.107Z,53.38
2018-10-02T04:27:03.031Z,53.67
2018-10-02T04:29:28.995Z,54.07
2018-10-02T04:31:55.018Z,54.28
2018-10-02T04:34:20.999Z,54.02
2018-10-02T04:36:46.963Z,54.03
2018-10-02T04:39:12.920Z,53.43
2018-10-02T04:41:38.940Z,53.94
2018-10-02T04:44:04.903Z,53.77
2018-10-02T04:46:30.863Z,53.59
2018-10-02T04:48:56.824Z,53.54
2018-10-02T04:51:22.839Z,54.18
2018-10-02T04:53:48.812Z,53.30
2018-10-02T04:56:14.891Z,53.91
2018-10-02T04:58:40.815Z,53.75
2018-10-02T05:01:06.800Z,53.34
2018-10-02T05:03:32.752Z,53.22
2018-10-02T05:05:58.722Z,53.92
2018-10-02T05:08:24.761Z,54.05
2018-10-02T05:10:50.647Z,53.23
2018-10-02T05:13:16.591Z,53.41
2018-10-02T05:15:42.575Z,53.81
2018-10-02T05:18:08.527Z,53.96
2018-10-02T05:20:34.519Z,53.49
2018-10-02T05:23:00.444Z,53.78
2018-10-02T05:25:26.428Z,53.17
2018-10-02T05:27:52.479Z,53.57
2018-10-02T05:30:18.440Z,53.02
2018-10-02T05:32:45.776Z,53.26
2018-10-02T05:35:11.831Z,53.90
2018-10-02T05:37:37.724Z,53.04
2018-10-02T05:40:03.682Z,53.54
2018-10-02T05:42:29.805Z,53.58
2018-10-02T05:44:55.763Z,53.14
2018-10-02T05:47:21.746Z,53.97
2018-10-02T05:49:47.713Z,53.03
2018-10-02T05:52:13.660Z,53.16
2018-10-02T05:54:39.616Z,52.99
2018-10-02T05:57:05.612Z,53.03
2018-10-02T05:59:31.585Z,53.92
2018-10-02T06:01:57.528Z,53.36
2018-10-02T06:04:23.493Z,53.59
2018-10-02T06:06:49.456Z,54.09
2018-10-02T06:09:15.415Z,53.15
2018-10-02T06:11:41.368Z,53.26
2018-10-02T06:14:07.339Z,53.48
2018-10-02T06:16:33.301Z,53.43
2018-10-02T06:18:59.248Z,53.30
2018-10-02T06:21:25.217Z,53.65
2018-10-02T06:23:51.220Z,53.90
2018-10-02T06:26:17.175Z,53.87
2018-10-02T06:28:43.176Z,53.14
2018-10-02T06:31:09.784Z,53.25
2018-10-02T06:33:35.741Z,53.21
2018-10-02T06:36:01.777Z,53.33
2018-10-02T06:38:27.902Z,53.09
2018-10-02T06:40:53.696Z,54.12
2018-10-02T06:43:19.764Z,53.44
2018-10-02T06:45:45.727Z,53.71
2018-10-02T06:48:11.687Z,53.74
2018-10-02T06:50:37.679Z,53.93
2018-10-02T06:53:03.632Z,54.23
2018-10-02T06:55:29.583Z,52.94
2018-10-02T06:57:55.539Z,53.34
2018-10-02T07:00:21.498Z,53.65
2018-10-02T07:02:47.438Z,53.16
2018-10-02T07:05:13.432Z,53.63
2018-10-02T07:07:39.448Z,53.17
2018-10-02T07:10:05.474Z,54.13
2018-10-02T07:12:31.508Z,53.72
2018-10-02T07:14:57.591Z,53.21
2018-10-02T07:17:23.594Z,53.90
2018-10-02T07:19:49.587Z,53.37
2018-10-02T07:22:15.543Z,53.18
2018-10-02T07:24:41.487Z,53.71
2018-10-02T07:27:07.497Z,53.26
2018-10-02T07:29:33.397Z,53.79
2018-10-02T07:31:59.371Z,53.39
2018-10-02T07:34:25.321Z,53.64
2018-10-02T07:36:51.329Z,53.90
2018-10-02T07:39:17.267Z,53.79
2018-10-02T07:41:43.313Z,54.06
2018-10-02T07:44:09.225Z,53.38
2018-10-02T07:46:35.200Z,53.30
2018-10-02T07:49:01.172Z,53.87
2018-10-02T07:51:27.177Z,54.46
2018-10-02T07:53:53.195Z,53.37
2018-10-02T07:56:19.091Z,54.38
2018-10-02T07:58:45.139Z,54.70
2018-10-02T08:01:11.164Z,54.35
2018-10-02T08:03:37.187Z,54.24
2018-10-02T08:06:03.209Z,54.92
2018-10-02T08:08:29.170Z,54.62
2018-10-02T08:10:55.072Z,54.27
2018-10-02T08:13:21.024Z,54.47
2018-10-02T08:15:46.975Z,54.65
2018-10-02T08:18:12.924Z,54.67
2018-10-02T08:20:39.004Z,54.19
2018-10-02T08:23:04.919Z,53.97
2018-10-02T08:25:30.878Z,54.08
2018-10-02T08:27:56.851Z,53.99
2018-10-02T08:30:22.869Z,54.66
2018-10-02T08:32:48.806Z,53.83
2018-10-02T08:35:14.740Z,54.72
2018-10-02T08:37:41.257Z,54.25
2018-10-02T08:40:07.237Z,53.51
2018-10-02T08:42:33.188Z,54.21
2018-10-02T08:44:59.219Z,53.88
2018-10-02T08:47:25.266Z,55.04
2018-10-02T08:49:51.216Z,55.08
2018-10-02T08:52:17.211Z,55.18
2018-10-02T08:54:43.162Z,55.36
2018-10-02T08:57:09.120Z,54.62
2018-10-02T08:59:35.095Z,54.81
2018-10-02T09:02:01.044Z,54.76
2018-10-02T09:04:27.029Z,54.84
2018-10-02T09:06:53.057Z,55.33
2018-10-02T09:09:18.962Z,55.15
2018-10-02T09:11:44.927Z,54.81
2018-10-02T09:14:10.883Z,55.00
2018-10-02T09:16:36.997Z,54.53
2018-10-02T09:19:03.068Z,54.72
2018-10-02T09:21:29.056Z,54.57
2018-10-02T09:23:54.964Z,54.65
2018-10-02T09:26:20.935Z,55.08
2018-10-02T09:28:46.900Z,54.97
2018-10-02T09:31:12.901Z,55.62
2018-10-02T09:33:39.128Z,55.06
2018-10-02T09:36:05.024Z,54.78
2018-10-02T09:38:30.983Z,54.83
2018-10-02T09:40:56.960Z,54.70
2018-10-02T09:43:22.970Z,54.72
2018-10-02T09:45:48.959Z,55.10
2018-10-02T09:48:14.916Z,55.34
2018-10-02T09:50:40.998Z,55.62
2018-10-02T09:53:06.893Z,55.31
2018-10-02T09:55:32.892Z,54.78
2018-10-02T09:57:59.049Z,55.92
2018-10-02T10:00:25.076Z,55.00
2018-10-02T10:02:51.014Z,55.43
2018-10-02T10:05:16.965Z,55.39
2018-10-02T10:07:42.933Z,55.04
2018-10-02T10:10:08.896Z,55.11
2018-10-02T10:12:34.860Z,55.15
2018-10-02T10:15:00.816Z,55.54
2018-10-02T10:17:27.280Z,55.70
2018-10-02T10:19:53.169Z,55.53
2018-10-02T10:22:19.147Z,55.89
2018-10-02T10:24:45.100Z,55.35
2018-10-02T10:27:11.081Z,56.18
2018-10-02T10:29:37.034Z,55.86
2018-10-02T10:32:03.004Z,55.35
2018-10-02T10:34:28.965Z,56.01
2018-10-02T10:36:54.942Z,55.96
2018-10-02T10:39:20.891Z,56.06
2018-10-02T10:41:46.862Z,56.05
2018-10-02T10:44:12.817Z,55.69
2018-10-02T10:46:38.814Z,55.54
2018-10-02T10:49:04.736Z,55.62
2018-10-02T10:51:30.695Z,55.56
2018-10-02T10:53:56.662Z,55.89
2018-10-02T10:56:22.619Z,55.68
2018-10-02T10:58:48.669Z,55.08
2018-10-02T11:01:14.625Z,55.61
2018-10-02T11:03:40.599Z,55.64
2018-10-02T11:06:06.700Z,56.35
2018-10-02T11:08:32.853Z,56.31
2018-10-02T11:10:58.922Z,55.54
2018-10-02T11:13:24.875Z,55.88
2018-10-02T11:15:50.835Z,55.75
2018-10-02T11:18:16.804Z,55.86
2018-10-02T11:20:42.764Z,56.06
2018-10-02T11:23:08.717Z,55.92
2018-10-02T11:25:34.767Z,55.22
2018-10-02T11:28:00.764Z,55.65
2018-10-02T11:30:26.730Z,55.28
2018-10-02T11:32:52.745Z,55.60
2018-10-02T11:35:18.929Z,55.73
2018-10-02T11:37:44.948Z,55.98
2018-10-02T11:40:10.844Z,55.16
2018-10-02T11:42:36.843Z,56.08
2018-10-02T11:45:02.951Z,55.30
2018-10-02T11:47:28.829Z,55.91
2018-10-02T11:49:55.049Z,55.79
2018-10-02T11:52:20.903Z,55.75
2018-10-02T11:54:46.903Z,55.69
2018-10-02T11:57:12.905Z,55.58
2018-10-02T11:59:38.891Z,55.18
2018-10-02T12:02:04.852Z,55.76
2018-10-02T12:04:30.890Z,56.04
2018-10-02T12:06:56.843Z,56.24
2018-10-02T12:09:22.802Z,55.32
2018-10-02T12:11:48.776Z,56.24
2018-10-02T12:14:14.874Z,56.08
2018-10-02T12:16:40.724Z,55.34
2018-10-02T12:19:06.785Z,54.58
2018-10-02T12:21:32.723Z,54.83
2018-10-02T12:23:58.683Z,54.96
2018-10-02T12:26:24.644Z,55.17
2018-10-02T12:28:50.604Z,55.48
2018-10-02T12:31:16.638Z,55.61
2018-10-02T12:33:42.596Z,55.84
2018-10-02T12:36:08.789Z,55.70
2018-10-02T12:38:34.806Z,56.11
2018-10-02T12:41:00.733Z,56.53
2018-10-02T12:43:26.754Z,56.19
2018-10-02T12:45:52.715Z,56.35
2018-10-02T12:48:18.677Z,56.53
2018-10-02T12:50:44.648Z,56.65
2018-10-02T12:53:10.667Z,56.83
2018-10-02T12:55:36.575Z,56.26
2018-10-02T12:58:02.553Z,56.82
2018-10-02T13:00:28.596Z,55.89
2018-10-02T13:02:54.572Z,56.54
2018-10-02T13:05:20.528Z,56.72
2018-10-02T13:07:46.536Z,55.74
2018-10-02T13:10:12.583Z,56.08
2018-10-02T13:12:38.456Z,56.66
2018-10-02T13:15:04.437Z,55.94
2018-10-02T13:17:30.595Z,56.17
2018-10-02T13:19:56.622Z,56.18
2018-10-02T13:22:22.528Z,55.81
2018-10-02T13:24:48.544Z,56.05
2018-10-02T13:27:14.459Z,55.81
2018-10-02T13:29:40.424Z,56.30
2018-10-02T13:32:06.532Z,55.75
2018-10-02T13:34:32.506Z,56.55
2018-10-02T13:36:58.462Z,55.79
2018-10-02T13:39:24.430Z,56.84
2018-10-02T13:41:50.404Z,55.48
2018-10-02T13:44:16.441Z,56.12
2018-10-02T13:46:42.419Z,56.28
2018-10-02T13:49:08.366Z,56.63
2018-10-02T13:51:34.337Z,56.05
2018-10-02T13:54:00.288Z,55.29
2018-10-02T13:56:26.309Z,56.21
2018-10-02T13:58:52.266Z,55.42
2018-10-02T14:01:18.265Z,55.51
2018-10-02T14:03:44.175Z,55.03
2018-10-02T14:06:10.182Z,55.36
2018-10-02T14:08:36.163Z,55.44
2018-10-02T14:11:02.154Z,55.54
2018-10-02T14:13:28.176Z,55.93
2018-10-02T14:15:54.149Z,55.68
2018-10-02T14:18:20.115Z,55.14
2018-10-02T14:20:46.165Z,55.56
2018-10-02T14:23:12.140Z,55.53
2018-10-02T14:25:38.226Z,55.28
2018-10-02T14:28:04.223Z,55.33
2018-10-02T14:30:30.181Z,56.20
2018-10-02T14:32:56.155Z,56.25
2018-10-02T14:35:22.150Z,55.28
2018-10-02T14:37:48.167Z,55.89
2018-10-02T14:40:14.156Z,55.58
2018-10-02T14:42:40.103Z,55.33
2018-10-02T14:45:06.059Z,55.03
2018-10-02T14:47:32.025Z,55.50
2018-10-02T14:52:30.301Z,54.83
2018-10-02T14:54:56.324Z,55.12
2018-10-02T14:57:23.968Z,55.68
2018-10-02T14:59:49.926Z,54.98
2018-10-02T15:02:16.438Z,55.61
2018-10-02T15:04:45.094Z,56.00
2018-10-02T15:07:11.047Z,55.48
2018-10-02T15:09:37.780Z,55.50
2018-10-02T15:12:04.859Z,55.87
2018-10-02T15:14:30.961Z,55.42
2018-10-02T15:16:56.944Z,55.42
2018-10-02T15:19:22.905Z,55.36
2018-10-02T15:21:49.106Z,56.17
2018-10-02T15:24:15.180Z,55.80
2018-10-02T15:26:41.128Z,54.99
2018-10-02T15:29:07.080Z,55.57
2018-10-02T15:31:33.109Z,55.59
2018-10-02T15:33:59.057Z,57.09
2018-10-02T15:36:25.031Z,55.94
2018-10-02T15:38:51.004Z,55.51
2018-10-02T15:41:16.984Z,56.39
2018-10-02T15:43:42.960Z,55.99
2018-10-02T15:46:08.910Z,55.68
2018-10-02T15:48:34.884Z,56.53
2018-10-02T15:51:00.906Z,56.27
2018-10-02T15:53:26.828Z,56.17
2018-10-02T15:55:52.791Z,56.63
2018-10-02T15:58:18.786Z,55.73
2018-10-02T16:00:45.074Z,55.99
2018-10-02T16:03:11.099Z,55.68
2018-10-02T16:05:37.062Z,56.12
2018-10-02T16:08:03.040Z,56.08
2018-10-02T16:10:29.012Z,55.10
2018-10-02T16:12:54.982Z,55.70
2018-10-02T16:15:20.944Z,55.84
2018-10-02T16:17:47.091Z,56.06
2018-10-02T16:20:13.061Z,56.15
2018-10-02T16:22:39.106Z,55.27
2018-10-02T16:25:05.060Z,55.62
2018-10-02T16:27:31.050Z,55.78
2018-10-02T16:29:57.009Z,55.17
2018-10-02T16:32:22.989Z,55.63
2018-10-02T16:34:49.286Z,56.33
2018-10-02T16:37:14.935Z,55.73
2018-10-02T16:39:40.896Z,55.16
2018-10-02T16:42:06.916Z,55.67
2018-10-02T16:44:32.932Z,56.13
2018-10-02T16:46:58.968Z,56.15
2018-10-02T16:49:24.873Z,55.82
2018-10-02T16:51:50.832Z,55.62
2018-10-02T16:54:16.865Z,56.10
2018-10-02T16:56:42.901Z,55.56
2018-10-02T16:59:09.002Z,55.22
2018-10-02T17:01:34.917Z,55.87
2018-10-02T17:04:00.896Z,56.07
2018-10-02T17:06:27.203Z,55.12
2018-10-02T17:08:53.170Z,56.17
2018-10-02T17:11:19.162Z,56.25
2018-10-02T17:13:45.157Z,55.82
2018-10-02T17:16:11.196Z,55.66
2018-10-02T17:18:37.176Z,55.23
2018-10-02T17:21:03.184Z,55.77
2018-10-02T17:23:29.217Z,55.91
2018-10-02T17:25:55.201Z,55.06
2018-10-02T17:28:21.381Z,55.11
2018-10-02T17:30:47.351Z,54.92
2018-10-02T17:33:13.424Z,55.18
2018-10-02T17:35:39.377Z,55.75
2018-10-02T17:38:05.364Z,55.48
2018-10-02T17:40:31.347Z,55.67
2018-10-02T17:42:57.382Z,55.22
2018-10-02T17:45:23.336Z,55.57
2018-10-02T17:47:49.297Z,55.72
2018-10-02T17:50:15.259Z,55.90
2018-10-02T17:52:41.251Z,56.17
2018-10-02T17:55:07.215Z,55.91
2018-10-02T17:57:33.218Z,55.62
2018-10-02T17:59:59.195Z,55.96
2018-10-02T18:02:25.276Z,56.65
2018-10-02T18:04:51.345Z,56.32
2018-10-02T18:07:17.422Z,56.16
2018-10-02T18:09:43.338Z,56.18
2018-10-02T18:12:09.398Z,56.70
2018-10-02T18:14:35.431Z,56.40
2018-10-02T18:17:01.454Z,57.19
2018-10-02T18:19:27.478Z,56.97
2018-10-02T18:21:53.544Z,57.17
2018-10-02T18:24:19.594Z,56.68
2018-10-02T18:26:45.555Z,56.08
2018-10-02T18:29:11.557Z,56.26
2018-10-02T18:31:37.533Z,55.81
2018-10-02T18:34:03.537Z,56.40
2018-10-02T18:36:29.520Z,56.73
2018-10-02T18:38:55.612Z,56.66
2018-10-02T18:41:21.536Z,56.94
2018-10-02T18:43:47.570Z,57.06
2018-10-02T18:46:13.577Z,56.56
2018-10-02T18:48:39.633Z,56.96
2018-10-02T18:51:05.600Z,56.59
2018-10-02T18:53:31.545Z,55.66
2018-10-02T18:55:57.562Z,56.63
2018-10-02T18:58:23.532Z,57.14
2018-10-02T19:00:49.560Z,56.29
2018-10-02T19:03:15.531Z,57.32
2018-10-02T19:05:41.533Z,56.69
2018-10-02T19:08:07.526Z,56.77
2018-10-02T19:10:33.625Z,56.87
2018-10-02T19:12:59.632Z,56.26
2018-10-02T19:15:25.609Z,56.56
2018-10-02T19:17:51.718Z,56.01
2018-10-02T19:20:17.872Z,56.24
2018-10-02T19:22:43.889Z,56.13
2018-10-02T19:25:09.919Z,57.08
2018-10-02T19:27:35.999Z,56.96
2018-10-02T19:30:02.327Z,56.37
2018-10-02T19:32:28.352Z,57.50
2018-10-02T19:34:54.417Z,57.48
2018-10-02T19:37:20.442Z,56.10
2018-10-02T19:39:46.442Z,56.43
2018-10-02T19:42:12.459Z,57.09
2018-10-02T19:44:38.463Z,57.06
2018-10-02T19:47:04.478Z,56.79
2018-10-02T19:49:30.473Z,56.21
2018-10-02T19:51:56.514Z,56.65
2018-10-02T19:54:22.491Z,57.03
2018-10-02T19:56:48.462Z,56.77
2018-10-02T19:59:14.436Z,57.15
2018-10-02T20:01:40.394Z,57.34
2018-10-02T20:04:06.409Z,56.58
2018-10-02T20:06:32.316Z,56.40
2018-10-02T20:08:58.340Z,56.67
2018-10-02T20:11:24.353Z,56.35
2018-10-02T20:13:50.386Z,56.60
2018-10-02T20:16:16.312Z,56.34
2018-10-02T20:18:42.480Z,56.01
2018-10-02T20:21:08.443Z,56.43
2018-10-02T20:23:34.632Z,56.53
2018-10-02T20:26:00.604Z,56.51
2018-10-02T20:28:26.603Z,56.67
2018-10-02T20:30:52.604Z,56.46
2018-10-02T20:33:18.577Z,57.10
2018-10-02T20:35:44.554Z,57.56
2018-10-02T20:38:10.505Z,57.65
2018-10-02T20:40:36.504Z,56.87
2018-10-02T20:43:02.481Z,56.40
2018-10-02T20:45:28.446Z,57.80
2018-10-02T20:47:54.433Z,57.44
2018-10-02T20:50:20.397Z,56.81
2018-10-02T20:52:46.363Z,57.02
2018-10-02T20:55:12.331Z,56.96
2018-10-02T20:57:38.312Z,57.42
2018-10-02T21:00:04.280Z,58.18
2018-10-02T21:02:30.490Z,58.24
2018-10-02T21:04:56.460Z,57.57
2018-10-02T21:07:22.422Z,57.72
2018-10-02T21:09:48.375Z,57.17
2018-10-02T21:12:14.415Z,56.93
2018-10-02T21:14:40.356Z,57.23
2018-10-02T21:17:06.343Z,57.75
2018-10-02T21:19:32.387Z,58.10
2018-10-02T21:21:58.347Z,58.43
2018-10-02T21:24:24.335Z,57.35
2018-10-02T21:26:50.293Z,57.56
2018-10-02T21:29:16.272Z,57.38
2018-10-02T21:31:42.281Z,57.57
2018-10-02T21:34:08.211Z,57.49
2018-10-02T21:36:34.191Z,57.51
2018-10-02T21:39:00.140Z,56.85
2018-10-02T21:41:26.110Z,57.73
2018-10-02T21:43:52.066Z,57.66
2018-10-02T21:46:18.069Z,58.48
2018-10-02T21:48:44.127Z,57.47
2018-10-02T21:51:10.147Z,57.24
2018-10-02T21:53:36.177Z,58.00
2018-10-02T21:56:02.138Z,57.50
2018-10-02T21:58:28.124Z,58.38
2018-10-02T22:00:54.151Z,57.48
2018-10-02T22:03:20.112Z,57.79
2018-10-02T22:05:46.071Z,57.29
2018-10-02T22:08:12.145Z,58.11
2018-10-02T22:10:38.176Z,57.89
2018-10-02T22:13:04.199Z,58.19
2018-10-02T22:15:30.229Z,58.62
2018-10-02T22:17:56.159Z,57.90
2018-10-02T22:20:22.120Z,58.39
2018-10-02T22:22:48.092Z,58.18
2018-10-02T22:25:14.043Z,58.04
2018-10-02T22:27:40.036Z,57.39
2018-10-02T22:30:06.010Z,57.68
2018-10-02T22:32:31.972Z,58.33
2018-10-02T22:34:57.941Z,57.93
2018-10-02T22:37:23.899Z,58.51
2018-10-02T22:39:49.859Z,58.10
2018-10-02T22:42:15.875Z,58.18
2018-10-02T22:44:41.939Z,57.76
2018-10-02T22:47:07.880Z,57.44
2018-10-02T22:49:33.916Z,57.77
2018-10-02T22:51:59.959Z,57.77
2018-10-02T22:54:25.980Z,58.25
2018-10-02T22:56:52.013Z,58.63
2018-10-02T22:59:18.255Z,57.82
2018-10-02T23:01:44.144Z,58.78
2018-10-02T23:04:10.127Z,57.66
2018-10-02T23:06:36.128Z,58.24
2018-10-02T23:09:02.120Z,57.74
2018-10-02T23:11:28.080Z,57.56
2018-10-02T23:13:54.034Z,57.81
2018-10-02T23:16:20.041Z,57.01
2018-10-02T23:18:45.996Z,57.03
2018-10-02T23:21:11.985Z,57.92
2018-10-02T23:23:38.057Z,57.74
2018-10-02T23:26:04.037Z,58.27
2018-10-02T23:28:30.027Z,58.34
2018-10-02T23:30:56.061Z,58.16
2018-10-02T23:33:22.032Z,57.54
2018-10-02T23:35:48.012Z,58.33
2018-10-02T23:38:13.976Z,58.04
2018-10-02T23:40:39.979Z,57.94
2018-10-02T23:43:05.961Z,57.78
2018-10-02T23:45:31.923Z,58.00
2018-10-02T23:47:57.876Z,58.32
2018-10-02T23:50:23.839Z,58.78
2018-10-02T23:52:49.871Z,58.83
2018-10-02T23:55:15.910Z,58.12
2018-10-02T23:57:41.935Z,57.11
